Austintown, Ohio
Current Conditions -  °F | °C
As of 6:51 PM on Wednesday 26 Nov 2014 (Local Time) from KYNG Reporting Station
Overcast Overcast  
Wind Chill: 34°   Ceiling: 3200
Heat Index: 34°   Visibility: 10mi
Dew Point: 29°   Wind: 0mph
Humidity: 82%   Direction: NA
Pressure: 30"   Gusts: NA
Location:  41.1°N, 80.76°W
Report Text: KYNG 262351Z 00000KT 10SM FEW016 FEW025 OVC032 01/M02 A3000 RMK AO2 SLP172 T00111017 10028 20011 50001
Loading
Personal Weather Stations






























Interactive Weather Map New forecast layout! Learn more

10-Day Weather Forecast

Advertisements
Track Severe Weather on mobile